Time;durP1;ratioP1;P1;durP2;ratioP2;P2;SDS_P1;SDS_P2;PMS_P1;PMS_P2;Temp;Humidity;BMP_temperature;BMP_pressure;BME280_temperature;BME280_humidity;BME280_pressure;Samples;Min_cycle;Max_cycle;Signal;HPM_P1;HPM_P2
2022/11/15 00:03:51;;;;;;;10.70;9.02;;;;;;;;;;10275397;28;20517;-58
2022/11/15 00:09:08;;;;;;;11.20;9.68;;;;;;;;;;10263701;28;20079;-58
2022/11/15 00:14:25;;;;;;;13.55;10.57;;;;;;;;;;10249041;28;20474;-59
2022/11/15 00:19:43;;;;;;;9.13;7.90;;;;;;;;;;10268770;28;20053;-58
2022/11/15 00:25:00;;;;;;;12.27;9.68;;;;;;;;;;10281588;28;20079;-58
2022/11/15 00:30:17;;;;;;;12.00;9.18;;;;;;;;;;10280651;28;20113;-58
2022/11/15 00:35:35;;;;;;;14.20;10.63;;;;;;;;;;10280446;28;20088;-60
2022/11/15 00:40:52;;;;;;;8.95;7.82;;;;;;;;;;10266204;28;20529;-61
2022/11/15 00:46:09;;;;;;;9.30;8.40;;;;;;;;;;10274465;28;20096;-59
2022/11/15 00:51:27;;;;;;;9.10;7.97;;;;;;;;;;10277312;28;20079;-58
2022/11/15 00:56:44;;;;;;;9.80;7.97;;;;;;;;;;10275426;28;20083;-59
2022/11/15 01:02:00;;;;;;;8.48;7.57;;;;;;;;;;10274259;28;20099;-60
2022/11/15 01:07:19;;;;;;;8.63;7.63;;;;;;;;;;10274165;28;20480;-58
2022/11/15 01:12:36;;;;;;;8.48;7.65;;;;;;;;;;10274482;28;20498;-58
2022/11/15 01:17:52;;;;;;;9.85;7.28;;;;;;;;;;10269172;28;20706;-59
2022/11/15 01:23:11;;;;;;;8.32;7.07;;;;;;;;;;10268202;28;20095;-58
2022/11/15 01:28:30;;;;;;;8.10;7.03;;;;;;;;;;10269787;28;20433;-58
2022/11/15 01:33:48;;;;;;;9.68;8.05;;;;;;;;;;10272349;28;20487;-59
2022/11/15 01:39:06;;;;;;;12.20;8.35;;;;;;;;;;10266472;28;20091;-59
2022/11/15 01:44:37;;;;;;;9.63;8.07;;;;;;;;;;10273721;28;20513;-59
2022/11/15 01:49:58;;;;;;;9.13;7.43;;;;;;;;;;10273509;28;20077;-59
2022/11/15 01:55:19;;;;;;;10.77;8.57;;;;;;;;;;10273495;28;20072;-59
2022/11/15 02:00:36;;;;;;;9.98;8.15;;;;;;;;;;10272585;28;20612;-59
2022/11/15 02:05:54;;;;;;;10.20;8.25;;;;;;;;;;10259737;28;20068;-59
2022/11/15 02:11:12;;;;;;;9.60;7.65;;;;;;;;;;10275581;28;20072;-59
2022/11/15 02:16:35;;;;;;;9.82;8.10;;;;;;;;;;10272780;28;20076;-58
2022/11/15 02:22:00;;;;;;;12.35;8.23;;;;;;;;;;10270085;28;20080;-58
2022/11/15 02:27:39;;;;;;;10.20;8.25;;;;;;;;;;10242181;28;20077;-59
2022/11/15 02:32:58;;;;;;;9.55;8.43;;;;;;;;;;10269251;28;20069;-59
2022/11/15 02:38:18;;;;;;;12.52;9.32;;;;;;;;;;10264856;28;20076;-59
2022/11/15 02:43:57;;;;;;;10.23;8.77;;;;;;;;;;10266124;28;20077;-59
2022/11/15 02:49:16;;;;;;;8.75;7.43;;;;;;;;;;10274121;28;20080;-58
2022/11/15 02:54:34;;;;;;;11.05;8.45;;;;;;;;;;10277793;28;20084;-59
2022/11/15 03:00:08;;;;;;;8.27;7.32;;;;;;;;;;10263912;28;20085;-58
2022/11/15 03:05:32;;;;;;;12.45;9.07;;;;;;;;;;10254724;28;20050;-59
2022/11/15 03:10:53;;;;;;;10.43;9.15;;;;;;;;;;10240806;28;20126;-58
2022/11/15 03:16:11;;;;;;;11.43;8.38;;;;;;;;;;10274439;28;20084;-59
2022/11/15 03:21:31;;;;;;;9.60;8.02;;;;;;;;;;10280707;28;20076;-60
2022/11/15 03:26:49;;;;;;;11.85;9.63;;;;;;;;;;10279214;28;20095;-58
2022/11/15 03:32:08;;;;;;;10.38;8.55;;;;;;;;;;10278399;28;20084;-58
2022/11/15 03:37:30;;;;;;;11.45;8.50;;;;;;;;;;10278680;28;20517;-58
2022/11/15 03:42:49;;;;;;;11.30;9.02;;;;;;;;;;10270539;28;20069;-58
2022/11/15 03:48:08;;;;;;;12.38;8.93;;;;;;;;;;10271456;28;20546;-59
2022/11/15 03:53:26;;;;;;;9.65;8.25;;;;;;;;;;10274638;28;20072;-57
2022/11/15 03:58:42;;;;;;;10.60;8.15;;;;;;;;;;10259964;28;20080;-59
2022/11/15 04:03:59;;;;;;;10.05;8.82;;;;;;;;;;10238860;28;20498;-58
2022/11/15 04:09:17;;;;;;;11.55;8.60;;;;;;;;;;10266924;28;20084;-58
2022/11/15 04:14:34;;;;;;;12.85;8.57;;;;;;;;;;10283727;28;20041;-58
2022/11/15 04:25:26;;;;;;;12.60;10.68;;;;;;;;;;10268163;28;20049;-58
2022/11/15 04:30:48;;;;;;;11.68;10.02;;;;;;;;;;10274136;28;20132;-59
2022/11/15 04:41:40;;;;;;;12.10;10.10;;;;;;;;;;10279005;28;20053;-58
2022/11/15 04:46:57;;;;;;;12.85;10.32;;;;;;;;;;10274126;28;20056;-58
2022/11/15 04:52:14;;;;;;;13.93;11.02;;;;;;;;;;10275941;28;20074;-59
2022/11/15 04:57:32;;;;;;;14.90;9.57;;;;;;;;;;10277150;28;20080;-59
2022/11/15 05:08:23;;;;;;;18.35;10.20;;;;;;;;;;10240487;28;20073;-60
2022/11/15 05:13:41;;;;;;;15.68;11.13;;;;;;;;;;10272058;28;20140;-59
2022/11/15 05:18:58;;;;;;;13.73;10.75;;;;;;;;;;10276119;28;20085;-59
2022/11/15 05:24:14;;;;;;;17.88;10.23;;;;;;;;;;10278270;28;20049;-59
2022/11/15 05:29:33;;;;;;;16.45;9.77;;;;;;;;;;10282862;28;20522;-59
2022/11/15 05:34:50;;;;;;;14.88;10.50;;;;;;;;;;10274232;28;20081;-59
2022/11/15 05:40:07;;;;;;;17.42;11.43;;;;;;;;;;10273619;28;20565;-59
2022/11/15 05:45:25;;;;;;;15.52;9.88;;;;;;;;;;10269252;28;20148;-59
2022/11/15 05:50:45;;;;;;;16.10;12.38;;;;;;;;;;10260021;28;20073;-58
2022/11/15 05:56:02;;;;;;;15.40;12.25;;;;;;;;;;10260524;28;20084;-58
2022/11/15 06:01:20;;;;;;;16.42;11.73;;;;;;;;;;10269323;28;20084;-60
2022/11/15 06:06:37;;;;;;;16.25;11.45;;;;;;;;;;10271632;28;20092;-59
2022/11/15 06:11:53;;;;;;;12.63;10.57;;;;;;;;;;10273318;28;20068;-60
2022/11/15 06:17:11;;;;;;;18.77;11.18;;;;;;;;;;10277207;28;20080;-59
2022/11/15 06:22:27;;;;;;;20.65;11.80;;;;;;;;;;10275839;28;20049;-60
2022/11/15 06:27:44;;;;;;;18.67;12.65;;;;;;;;;;10269522;28;20072;-59
2022/11/15 06:33:03;;;;;;;17.08;10.20;;;;;;;;;;10257237;28;20527;-59
2022/11/15 06:38:20;;;;;;;13.85;10.73;;;;;;;;;;10272451;28;20490;-59
2022/11/15 06:43:37;;;;;;;23.15;15.63;;;;;;;;;;10276103;28;20092;-61
2022/11/15 06:48:55;;;;;;;25.55;12.73;;;;;;;;;;10268471;28;20057;-59
2022/11/15 06:54:12;;;;;;;12.80;10.27;;;;;;;;;;10274529;28;20073;-59
2022/11/15 06:59:29;;;;;;;16.65;10.57;;;;;;;;;;10270644;28;20073;-58
2022/11/15 07:04:47;;;;;;;14.75;12.05;;;;;;;;;;10277338;28;20076;-59
2022/11/15 07:10:04;;;;;;;14.40;10.55;;;;;;;;;;10279936;28;20080;-60
2022/11/15 07:15:21;;;;;;;13.88;10.10;;;;;;;;;;10266560;28;20458;-59
2022/11/15 07:20:39;;;;;;;16.92;10.52;;;;;;;;;;10279647;28;20072;-59
2022/11/15 07:25:57;;;;;;;13.98;10.45;;;;;;;;;;10265747;28;20076;-59
2022/11/15 07:31:14;;;;;;;16.67;12.20;;;;;;;;;;10278209;28;20442;-60
2022/11/15 07:36:32;;;;;;;19.15;10.23;;;;;;;;;;10267269;28;20068;-58
2022/11/15 07:42:52;;;;;;;13.77;10.05;;;;;;;;;;10275363;28;20073;-56
2022/11/15 07:47:26;;;;;;;16.38;10.55;;;;;;;;;;10266284;28;20498;-57
2022/11/15 07:52:44;;;;;;;19.60;13.40;;;;;;;;;;10263970;28;20065;-57
2022/11/15 07:58:01;;;;;;;15.38;11.40;;;;;;;;;;10262526;28;20068;-57
2022/11/15 08:03:18;;;;;;;16.40;11.15;;;;;;;;;;10272242;28;20144;-57
2022/11/15 08:08:36;;;;;;;16.83;12.98;;;;;;;;;;10273158;28;20081;-57
2022/11/15 08:13:53;;;;;;;19.00;13.05;;;;;;;;;;10272881;28;20080;-58
2022/11/15 08:19:09;;;;;;;20.85;14.35;;;;;;;;;;10279158;28;20081;-58
2022/11/15 08:24:28;;;;;;;18.65;11.48;;;;;;;;;;10277094;28;20073;-58
2022/11/15 08:29:45;;;;;;;20.15;13.00;;;;;;;;;;10268260;28;20084;-57
2022/11/15 08:35:02;;;;;;;20.17;13.43;;;;;;;;;;10267054;28;20081;-59
2022/11/15 08:40:20;;;;;;;17.73;13.30;;;;;;;;;;10281251;28;20072;-56
2022/11/15 08:45:37;;;;;;;18.45;14.30;;;;;;;;;;10277193;28;20084;-57
2022/11/15 08:50:54;;;;;;;20.38;15.05;;;;;;;;;;10268629;28;20068;-59
2022/11/15 08:56:14;;;;;;;42.10;35.55;;;;;;;;;;10278734;28;20076;-57
2022/11/15 09:01:30;;;;;;;22.83;16.63;;;;;;;;;;10277542;28;20377;-58
2022/11/15 09:06:47;;;;;;;19.42;14.77;;;;;;;;;;10259724;28;20057;-59
2022/11/15 09:12:06;;;;;;;19.42;13.27;;;;;;;;;;10240470;28;20077;-59
2022/11/15 09:17:23;;;;;;;18.45;13.30;;;;;;;;;;10254027;28;20057;-59
2022/11/15 09:22:40;;;;;;;17.50;13.93;;;;;;;;;;10268809;28;20057;-61
2022/11/15 09:27:59;;;;;;;20.83;15.07;;;;;;;;;;10245132;28;20537;-60
2022/11/15 09:33:15;;;;;;;22.48;14.63;;;;;;;;;;10240606;28;20073;-60
2022/11/15 09:38:32;;;;;;;17.77;14.27;;;;;;;;;;10261085;28;20097;-59
2022/11/15 09:43:56;;;;;;;22.20;17.30;;;;;;;;;;10272461;28;20089;-59
2022/11/15 09:49:14;;;;;;;23.65;17.95;;;;;;;;;;10262619;28;20076;-60
2022/11/15 09:54:35;;;;;;;27.25;20.88;;;;;;;;;;10239146;28;20098;-60
2022/11/15 10:00:11;;;;;;;34.05;25.75;;;;;;;;;;10263531;28;20525;-60
2022/11/15 10:05:40;;;;;;;24.98;19.20;;;;;;;;;;10262476;28;20083;-59
2022/11/15 10:10:40;;;;;;;30.27;19.90;;;;;;;;;;10247212;28;20470;-59
2022/11/15 10:15:38;;;;;;;33.22;20.60;;;;;;;;;;10247902;28;20096;-58
2022/11/15 10:20:45;;;;;;;32.97;18.77;;;;;;;;;;10268543;28;20076;-59
2022/11/15 10:25:44;;;;;;;29.33;19.40;;;;;;;;;;10254748;28;20479;-58
2022/11/15 10:30:43;;;;;;;31.52;15.82;;;;;;;;;;10255077;28;20516;-59
2022/11/15 10:35:43;;;;;;;26.17;19.23;;;;;;;;;;10254171;28;20085;-57
2022/11/15 10:40:43;;;;;;;34.80;16.83;;;;;;;;;;10267454;28;20079;-58
2022/11/15 10:45:42;;;;;;;27.90;17.13;;;;;;;;;;10268224;28;20475;-58
2022/11/15 10:50:41;;;;;;;26.92;16.92;;;;;;;;;;10271642;28;20041;-59
2022/11/15 10:55:41;;;;;;;34.00;22.40;;;;;;;;;;10267238;28;20071;-59
2022/11/15 11:00:40;;;;;;;27.73;21.80;;;;;;;;;;10267507;28;20079;-60
2022/11/15 11:05:38;;;;;;;23.35;17.23;;;;;;;;;;10264352;28;20099;-59
2022/11/15 11:10:52;;;;;;;25.08;19.75;;;;;;;;;;10260573;28;20076;-60
2022/11/15 11:16:02;;;;;;;19.30;16.45;;;;;;;;;;10270368;28;20080;-60
2022/11/15 11:21:02;;;;;;;23.70;16.42;;;;;;;;;;10269917;28;20072;-59
2022/11/15 11:26:08;;;;;;;21.83;16.85;;;;;;;;;;10266052;28;20065;-59
2022/11/15 11:31:14;;;;;;;20.88;17.48;;;;;;;;;;10269590;28;20072;-57
2022/11/15 11:36:20;;;;;;;18.90;16.90;;;;;;;;;;10271042;28;20076;-58
2022/11/15 11:41:27;;;;;;;28.35;22.85;;;;;;;;;;10280274;28;20077;-59
2022/11/15 11:46:38;;;;;;;29.35;22.25;;;;;;;;;;10268074;28;20510;-59
2022/11/15 11:51:39;;;;;;;29.55;20.83;;;;;;;;;;10267828;28;20541;-59
2022/11/15 11:56:40;;;;;;;34.13;23.27;;;;;;;;;;10272698;28;20064;-59
2022/11/15 12:01:41;;;;;;;49.15;36.17;;;;;;;;;;10275175;28;20549;-59
2022/11/15 12:06:43;;;;;;;24.10;19.33;;;;;;;;;;10273050;28;20095;-59
2022/11/15 12:11:48;;;;;;;36.50;27.00;;;;;;;;;;10269931;28;20080;-59
2022/11/15 12:16:46;;;;;;;26.88;21.38;;;;;;;;;;10272312;28;20072;-59
2022/11/15 12:21:46;;;;;;;24.27;19.33;;;;;;;;;;10278393;28;20072;-58
2022/11/15 12:26:49;;;;;;;25.38;19.67;;;;;;;;;;10275015;28;20064;-59
2022/11/15 12:31:50;;;;;;;24.98;19.90;;;;;;;;;;10274744;28;20107;-59
2022/11/15 12:36:49;;;;;;;30.60;24.08;;;;;;;;;;10273471;28;20073;-58
2022/11/15 12:42:12;;;;;;;32.67;28.20;;;;;;;;;;10262078;28;20073;-59
2022/11/15 12:47:23;;;;;;;30.85;22.23;;;;;;;;;;10274116;28;20094;-59
2022/11/15 12:52:22;;;;;;;25.65;20.63;;;;;;;;;;10275395;28;20068;-59
2022/11/15 12:57:29;;;;;;;29.77;22.10;;;;;;;;;;10276671;28;20037;-59
2022/11/15 13:02:28;;;;;;;21.80;17.92;;;;;;;;;;10277164;28;20493;-60
2022/11/15 13:07:45;;;;;;;34.45;23.60;;;;;;;;;;10276343;28;20072;-59
2022/11/15 13:12:55;;;;;;;26.90;19.27;;;;;;;;;;10272773;28;20461;-59
2022/11/15 13:17:54;;;;;;;40.72;30.10;;;;;;;;;;10274797;28;20068;-59
2022/11/15 13:22:56;;;;;;;68.50;49.65;;;;;;;;;;10267419;28;20855;-56
2022/11/15 13:27:57;;;;;;;29.23;20.73;;;;;;;;;;10260379;28;20069;-60
2022/11/15 13:33:09;;;;;;;32.85;22.90;;;;;;;;;;10268557;28;20087;-59
2022/11/15 13:38:12;;;;;;;23.85;17.20;;;;;;;;;;10274958;28;20072;-59
2022/11/15 13:43:18;;;;;;;29.67;23.27;;;;;;;;;;10268802;28;20542;-59
2022/11/15 13:48:16;;;;;;;21.45;18.80;;;;;;;;;;10273650;28;20069;-58
2022/11/15 13:53:15;;;;;;;28.60;19.48;;;;;;;;;;10273252;28;20065;-58
2022/11/15 13:58:13;;;;;;;31.58;21.92;;;;;;;;;;10271533;28;20075;-59
2022/11/15 14:03:19;;;;;;;21.65;17.95;;;;;;;;;;10267460;28;20145;-58
2022/11/15 14:08:23;;;;;;;30.90;24.85;;;;;;;;;;10264499;28;20061;-59
2022/11/15 14:13:28;;;;;;;27.13;17.47;;;;;;;;;;10264645;28;20481;-58
2022/11/15 14:18:41;;;;;;;30.38;19.20;;;;;;;;;;10266029;28;20529;-58
2022/11/15 14:23:41;;;;;;;62.97;46.92;;;;;;;;;;10267408;28;20084;-56
2022/11/15 14:28:39;;;;;;;26.48;21.42;;;;;;;;;;10268530;28;20072;-56
2022/11/15 14:33:38;;;;;;;35.38;24.35;;;;;;;;;;10268436;28;20078;-57
2022/11/15 14:38:37;;;;;;;33.65;26.65;;;;;;;;;;10274018;28;20122;-60
2022/11/15 14:43:36;;;;;;;35.38;27.73;;;;;;;;;;10271140;28;20084;-59
2022/11/15 14:48:35;;;;;;;38.50;26.17;;;;;;;;;;10271459;28;20077;-58
2022/11/15 14:53:33;;;;;;;49.42;30.60;;;;;;;;;;10268713;28;20049;-60
2022/11/15 14:58:31;;;;;;;29.10;21.25;;;;;;;;;;10268459;28;20568;-60
2022/11/15 15:03:31;;;;;;;36.15;26.77;;;;;;;;;;10255136;28;20453;-61
2022/11/15 15:08:29;;;;;;;31.52;23.85;;;;;;;;;;10261756;28;20073;-61
2022/11/15 15:13:30;;;;;;;29.52;23.98;;;;;;;;;;10275420;28;20077;-59
2022/11/15 15:18:28;;;;;;;34.00;24.40;;;;;;;;;;10260516;28;20073;-60
2022/11/15 15:23:30;;;;;;;46.80;32.05;;;;;;;;;;10265735;28;20493;-60
2022/11/15 15:28:28;;;;;;;48.50;32.83;;;;;;;;;;10253724;28;20069;-59
2022/11/15 15:33:32;;;;;;;46.10;36.63;;;;;;;;;;10278620;28;20088;-59
2022/11/15 15:38:31;;;;;;;44.90;32.45;;;;;;;;;;10264946;28;20069;-57
2022/11/15 15:43:30;;;;;;;64.47;43.92;;;;;;;;;;10279832;28;20080;-60
2022/11/15 15:48:28;;;;;;;57.55;37.33;;;;;;;;;;10265120;28;20072;-59
2022/11/15 15:53:27;;;;;;;115.93;76.88;;;;;;;;;;10270935;28;20529;-58
2022/11/15 15:58:27;;;;;;;81.50;63.70;;;;;;;;;;10274088;28;20072;-59
2022/11/15 16:03:27;;;;;;;58.83;44.45;;;;;;;;;;10277302;28;20088;-59
2022/11/15 16:08:26;;;;;;;62.80;43.50;;;;;;;;;;10272559;28;20072;-60
2022/11/15 16:13:24;;;;;;;83.03;55.65;;;;;;;;;;10276095;28;20104;-60
2022/11/15 16:18:24;;;;;;;74.28;51.83;;;;;;;;;;10275625;28;20465;-60
2022/11/15 16:23:24;;;;;;;58.80;40.80;;;;;;;;;;10274891;28;20072;-60
2022/11/15 16:28:23;;;;;;;59.53;40.80;;;;;;;;;;10272142;28;20083;-59
2022/11/15 16:33:21;;;;;;;72.82;50.35;;;;;;;;;;10277837;28;20056;-59
2022/11/15 16:38:21;;;;;;;51.97;38.83;;;;;;;;;;10276671;28;20068;-60
2022/11/15 16:43:19;;;;;;;51.13;37.20;;;;;;;;;;10269290;28;20088;-59
2022/11/15 16:48:21;;;;;;;77.22;52.50;;;;;;;;;;10271012;28;20449;-60
2022/11/15 16:53:21;;;;;;;47.65;34.05;;;;;;;;;;10266491;28;20060;-60
2022/11/15 16:58:19;;;;;;;45.70;31.38;;;;;;;;;;10262514;28;20079;-59
2022/11/15 17:03:17;;;;;;;42.63;31.05;;;;;;;;;;10272749;28;20077;-58
2022/11/15 17:08:16;;;;;;;78.28;51.05;;;;;;;;;;10238929;28;20418;-60
2022/11/15 17:13:15;;;;;;;147.63;97.85;;;;;;;;;;10243259;28;20499;-61
2022/11/15 17:18:14;;;;;;;83.53;54.95;;;;;;;;;;10270115;28;20068;-61
2022/11/15 17:23:13;;;;;;;104.78;63.05;;;;;;;;;;10270495;28;20482;-60
2022/11/15 17:28:11;;;;;;;78.40;48.45;;;;;;;;;;10268664;28;20075;-61
2022/11/15 17:33:11;;;;;;;67.15;46.08;;;;;;;;;;10271089;28;20088;-60
2022/11/15 17:38:09;;;;;;;69.18;46.47;;;;;;;;;;10265645;28;20077;-59
2022/11/15 17:43:07;;;;;;;98.10;57.85;;;;;;;;;;10275321;28;20537;-60
2022/11/15 17:48:06;;;;;;;320.00;199.05;;;;;;;;;;10253031;28;20053;-60
2022/11/15 17:53:05;;;;;;;87.30;55.28;;;;;;;;;;10273842;28;20114;-59
2022/11/15 17:58:04;;;;;;;69.10;43.17;;;;;;;;;;10275518;28;20068;-60
2022/11/15 18:03:02;;;;;;;111.38;66.70;;;;;;;;;;10263698;28;20518;-59
2022/11/15 18:08:00;;;;;;;171.13;98.20;;;;;;;;;;10250133;28;20079;-59
2022/11/15 18:13:00;;;;;;;108.05;66.65;;;;;;;;;;10262268;28;20490;-60
2022/11/15 18:17:58;;;;;;;47.58;32.33;;;;;;;;;;10266583;28;20533;-59
2022/11/15 18:22:58;;;;;;;57.78;38.60;;;;;;;;;;10251999;28;20122;-60
2022/11/15 18:27:56;;;;;;;56.50;37.67;;;;;;;;;;10238500;28;20333;-58
2022/11/15 18:32:56;;;;;;;47.53;33.38;;;;;;;;;;10265429;28;20080;-60
2022/11/15 18:37:54;;;;;;;39.67;31.25;;;;;;;;;;10270950;28;20034;-61
2022/11/15 18:42:53;;;;;;;40.75;31.00;;;;;;;;;;10273284;28;20092;-59
2022/11/15 18:47:51;;;;;;;78.55;51.38;;;;;;;;;;10261748;28;20049;-60
2022/11/15 18:52:51;;;;;;;83.95;49.38;;;;;;;;;;10266453;28;20068;-59
2022/11/15 18:57:50;;;;;;;221.63;115.07;;;;;;;;;;10273046;28;20462;-59
2022/11/15 19:02:48;;;;;;;100.05;60.85;;;;;;;;;;10265891;28;20518;-60
2022/11/15 19:07:47;;;;;;;54.45;34.42;;;;;;;;;;10242739;28;20049;-60
2022/11/15 19:12:48;;;;;;;37.03;24.45;;;;;;;;;;10265764;28;20417;-59
2022/11/15 19:17:46;;;;;;;39.60;28.02;;;;;;;;;;10272960;28;20081;-59
2022/11/15 19:22:44;;;;;;;44.78;32.72;;;;;;;;;;10269588;28;20085;-59
2022/11/15 19:27:43;;;;;;;58.33;43.42;;;;;;;;;;10270605;28;20073;-60
2022/11/15 19:32:42;;;;;;;55.47;40.05;;;;;;;;;;10268465;28;20084;-59
2022/11/15 19:37:40;;;;;;;43.33;31.77;;;;;;;;;;10267041;28;20080;-60
2022/11/15 19:42:39;;;;;;;57.13;38.67;;;;;;;;;;10268961;28;20088;-59
2022/11/15 19:47:37;;;;;;;50.97;36.65;;;;;;;;;;10265417;28;20077;-60
2022/11/15 19:52:37;;;;;;;39.67;28.23;;;;;;;;;;10268910;28;20137;-60
2022/11/15 19:57:35;;;;;;;38.13;26.55;;;;;;;;;;10273890;28;20080;-60
2022/11/15 20:02:33;;;;;;;44.13;31.08;;;;;;;;;;10276292;28;20164;-60
2022/11/15 20:07:31;;;;;;;39.00;28.05;;;;;;;;;;10267752;28;20079;-59
2022/11/15 20:12:31;;;;;;;49.97;35.83;;;;;;;;;;10272551;28;20518;-59
2022/11/15 20:17:29;;;;;;;35.35;26.80;;;;;;;;;;10255418;28;20073;-60
2022/11/15 20:22:28;;;;;;;104.35;71.63;;;;;;;;;;10270684;28;20123;-61
2022/11/15 20:27:26;;;;;;;34.10;23.88;;;;;;;;;;10275689;28;20080;-59
2022/11/15 20:32:26;;;;;;;39.83;29.35;;;;;;;;;;10276851;28;20517;-59
2022/11/15 20:37:24;;;;;;;36.95;24.92;;;;;;;;;;10273298;28;20068;-60
2022/11/15 20:42:23;;;;;;;61.80;44.13;;;;;;;;;;10276003;28;20496;-60
2022/11/15 20:47:21;;;;;;;43.78;29.98;;;;;;;;;;10273661;28;20084;-59
2022/11/15 20:52:27;;;;;;;39.72;28.13;;;;;;;;;;10268733;28;20061;-60
2022/11/15 20:57:26;;;;;;;40.85;27.77;;;;;;;;;;10270600;28;20057;-60
2022/11/15 21:02:24;;;;;;;42.20;29.20;;;;;;;;;;10267080;28;20068;-60
2022/11/15 21:07:22;;;;;;;64.65;43.33;;;;;;;;;;10264872;28;20079;-60
2022/11/15 21:12:22;;;;;;;51.85;34.45;;;;;;;;;;10269174;28;20099;-60
2022/11/15 21:17:20;;;;;;;59.72;36.75;;;;;;;;;;10270068;28;20080;-59
2022/11/15 21:22:19;;;;;;;34.97;24.45;;;;;;;;;;10272531;28;20080;-60
2022/11/15 21:27:18;;;;;;;34.00;25.65;;;;;;;;;;10253656;28;20479;-59
2022/11/15 21:32:17;;;;;;;32.40;22.17;;;;;;;;;;10250130;28;20423;-59
2022/11/15 21:37:15;;;;;;;41.63;31.20;;;;;;;;;;10249579;28;20072;-59
2022/11/15 21:42:14;;;;;;;38.42;25.38;;;;;;;;;;10266414;28;20068;-60
2022/11/15 21:47:12;;;;;;;34.00;25.25;;;;;;;;;;10272251;28;20099;-60
2022/11/15 21:52:12;;;;;;;34.45;22.67;;;;;;;;;;10266092;28;20143;-60
2022/11/15 21:57:10;;;;;;;34.85;24.13;;;;;;;;;;10270185;28;20068;-60
2022/11/15 22:02:14;;;;;;;31.83;21.92;;;;;;;;;;10275593;28;20080;-60
2022/11/15 22:07:14;;;;;;;33.83;23.58;;;;;;;;;;10271343;28;20079;-60
2022/11/15 22:12:12;;;;;;;34.80;24.70;;;;;;;;;;10266346;28;20076;-60
2022/11/15 22:17:11;;;;;;;36.50;25.95;;;;;;;;;;10270513;28;20096;-60
2022/11/15 22:22:09;;;;;;;37.75;26.23;;;;;;;;;;10273485;28;20069;-61
2022/11/15 22:27:09;;;;;;;33.95;25.20;;;;;;;;;;10270496;28;20439;-60
2022/11/15 22:32:07;;;;;;;29.55;21.88;;;;;;;;;;10270754;28;20076;-59
2022/11/15 22:37:05;;;;;;;40.85;26.00;;;;;;;;;;10270430;28;20072;-60
2022/11/15 22:42:19;;;;;;;43.63;30.95;;;;;;;;;;10273900;28;20075;-60
2022/11/15 22:47:21;;;;;;;31.40;22.13;;;;;;;;;;10271688;28;20087;-59
2022/11/15 22:52:19;;;;;;;28.20;21.10;;;;;;;;;;10270452;28;20083;-60
2022/11/15 22:57:19;;;;;;;28.45;21.45;;;;;;;;;;10273415;28;20049;-60
2022/11/15 23:02:17;;;;;;;31.15;22.75;;;;;;;;;;10270473;28;20521;-59
2022/11/15 23:07:16;;;;;;;35.85;25.42;;;;;;;;;;10269493;28;20071;-60
2022/11/15 23:17:32;;;;;;;34.45;21.38;;;;;;;;;;10270639;28;20049;-59
2022/11/15 23:22:48;;;;;;;36.28;22.33;;;;;;;;;;10271020;28;20552;-58
2022/11/15 23:27:46;;;;;;;30.05;21.10;;;;;;;;;;10260456;28;20069;-58
2022/11/15 23:38:02;;;;;;;28.58;20.05;;;;;;;;;;10267841;28;20061;-59
2022/11/15 23:43:00;;;;;;;33.90;22.15;;;;;;;;;;10271599;28;20550;-59
2022/11/15 23:48:00;;;;;;;29.98;21.63;;;;;;;;;;10274737;28;20613;-59
2022/11/15 23:52:58;;;;;;;32.72;23.45;;;;;;;;;;10275257;28;20076;-59
2022/11/15 23:57:57;;;;;;;30.13;21.58;;;;;;;;;;10275034;28;20478;-59
